Time;durP1;ratioP1;P1;durP2;ratioP2;P2;SDS_P1;SDS_P2;PMS_P1;PMS_P2;Temp;Humidity;BMP_temperature;BMP_pressure;BME280_temperature;BME280_humidity;BME280_pressure;Samples;Min_cycle;Max_cycle;Signal;HPM_P1;HPM_P2
2024/03/26 00:01:55;;;;;;;;;;;7.30;99.90;;;;;;5054612;28;20011;-83
2024/03/26 00:04:20;;;;;;;;;;;7.20;99.90;;;;;;5053897;28;19909;-82
2024/03/26 00:06:46;;;;;;;;;;;7.20;99.90;;;;;;5054292;28;19909;-83
2024/03/26 00:09:11;;;;;;;;;;;7.20;99.90;;;;;;5055040;28;19916;-82
2024/03/26 00:11:37;;;;;;;;;;;7.10;99.90;;;;;;5054645;28;19979;-82
2024/03/26 00:14:02;;;;;;;;;;;7.10;99.90;;;;;;5055361;28;19908;-83
2024/03/26 00:16:28;;;;;;;;;;;7.10;99.90;;;;;;5062129;28;19924;-83
2024/03/26 00:18:53;;;;;;;;;;;7.00;1.00;;;;;;5052819;28;19913;-83
2024/03/26 00:21:19;;;;;;;;;;;7.00;1.00;;;;;;5051055;28;20288;-83
2024/03/26 00:23:44;;;;;;;;;;;7.00;1.00;;;;;;5069117;28;19952;-82
2024/03/26 00:26:09;;;;;;;;;;;7.00;1.00;;;;;;5044506;28;19913;-83
2024/03/26 00:28:35;;;;;;;;;;;7.00;1.00;;;;;;5052008;28;19997;-83
2024/03/26 00:31:00;;;;;;;;;;;6.90;1.00;;;;;;5061325;28;20403;-83
2024/03/26 00:33:26;;;;;;;;;;;6.90;1.00;;;;;;5050776;28;19909;-83
2024/03/26 00:35:51;;;;;;;;;;;6.90;1.00;;;;;;5053064;28;19912;-84
2024/03/26 00:38:17;;;;;;;;;;;6.90;1.00;;;;;;5051314;28;19913;-82
2024/03/26 00:40:42;;;;;;;;;;;6.90;1.00;;;;;;5053749;28;20432;-83
2024/03/26 00:43:08;;;;;;;;;;;6.90;1.00;;;;;;5052941;28;19912;-82
2024/03/26 00:45:33;;;;;;;;;;;6.90;1.00;;;;;;5055031;28;19920;-83
2024/03/26 00:47:58;;;;;;;;;;;6.90;1.00;;;;;;5052557;28;19962;-82
2024/03/26 00:50:24;;;;;;;;;;;6.90;1.00;;;;;;5045861;28;19917;-82
2024/03/26 00:52:49;;;;;;;;;;;6.90;1.00;;;;;;5046623;28;20331;-82
2024/03/26 00:55:15;;;;;;;;;;;6.90;1.00;;;;;;5047672;28;19917;-83
2024/03/26 00:57:40;;;;;;;;;;;6.90;1.00;;;;;;5051792;28;19909;-81
2024/03/26 01:00:10;;;;;;;;;;;6.90;1.00;;;;;;5054157;28;19920;-82
2024/03/26 01:02:36;;;;;;;;;;;6.80;1.00;;;;;;5052574;28;19909;-82
2024/03/26 01:05:01;;;;;;;;;;;6.80;1.00;;;;;;5061302;28;19913;-81
2024/03/26 01:07:27;;;;;;;;;;;6.80;1.00;;;;;;5056155;28;19916;-83
2024/03/26 01:09:53;;;;;;;;;;;6.80;1.00;;;;;;5069329;28;19912;-82
2024/03/26 01:12:19;;;;;;;;;;;6.80;1.00;;;;;;5052791;28;19920;-82
2024/03/26 01:14:44;;;;;;;;;;;6.80;1.00;;;;;;5054345;28;19917;-83
2024/03/26 01:17:10;;;;;;;;;;;6.80;1.00;;;;;;5070110;28;20252;-82
2024/03/26 01:19:35;;;;;;;;;;;6.70;1.00;;;;;;5054551;28;19916;-83
2024/03/26 01:22:01;;;;;;;;;;;6.80;1.00;;;;;;5054441;28;19908;-83
2024/03/26 01:24:26;;;;;;;;;;;6.80;1.00;;;;;;5046055;28;19995;-82
2024/03/26 01:26:51;;;;;;;;;;;6.70;1.00;;;;;;5053331;28;19916;-85
2024/03/26 01:29:17;;;;;;;;;;;6.70;1.00;;;;;;5048893;28;20422;-83
2024/03/26 01:31:42;;;;;;;;;;;6.70;1.00;;;;;;5054298;28;19913;-83
2024/03/26 01:34:08;;;;;;;;;;;6.70;1.00;;;;;;5054072;28;19959;-83
2024/03/26 01:36:33;;;;;;;;;;;6.70;1.00;;;;;;5052139;28;19912;-83
2024/03/26 01:38:59;;;;;;;;;;;6.70;1.00;;;;;;5057063;28;19913;-83
2024/03/26 01:41:24;;;;;;;;;;;6.70;1.00;;;;;;5057611;28;19924;-84
2024/03/26 01:43:50;;;;;;;;;;;6.70;1.00;;;;;;5054972;28;19913;-84
2024/03/26 01:46:15;;;;;;;;;;;6.70;1.00;;;;;;5057401;28;19909;-84
2024/03/26 01:48:40;;;;;;;;;;;6.70;1.00;;;;;;5054148;28;19920;-83
2024/03/26 01:51:06;;;;;;;;;;;6.70;1.00;;;;;;5054090;28;19920;-83
2024/03/26 01:53:31;;;;;;;;;;;6.70;1.00;;;;;;5053333;28;19948;-83
2024/03/26 01:55:57;;;;;;;;;;;6.70;1.00;;;;;;5052602;28;19943;-83
2024/03/26 01:58:23;;;;;;;;;;;6.70;1.00;;;;;;5049919;28;19916;-83
2024/03/26 02:00:49;;;;;;;;;;;6.70;1.00;;;;;;5051249;28;20345;-83
2024/03/26 02:03:15;;;;;;;;;;;6.60;1.00;;;;;;5047683;28;19913;-82
2024/03/26 02:05:40;;;;;;;;;;;6.70;1.00;;;;;;5062989;28;19909;-83
2024/03/26 02:08:06;;;;;;;;;;;6.70;1.00;;;;;;5060876;28;20007;-82
2024/03/26 02:10:32;;;;;;;;;;;6.70;1.00;;;;;;5052750;28;19917;-82
2024/03/26 02:12:57;;;;;;;;;;;6.70;1.00;;;;;;5053062;28;20389;-82
2024/03/26 02:15:23;;;;;;;;;;;6.70;1.00;;;;;;5063781;28;19913;-82
2024/03/26 02:17:49;;;;;;;;;;;6.70;1.00;;;;;;5043535;28;20431;-83
2024/03/26 02:20:14;;;;;;;;;;;6.70;1.00;;;;;;5056652;28;19975;-82
2024/03/26 02:22:40;;;;;;;;;;;6.70;1.00;;;;;;5054049;28;19916;-83
2024/03/26 02:25:05;;;;;;;;;;;6.60;1.00;;;;;;5064522;28;19924;-82
2024/03/26 02:27:31;;;;;;;;;;;6.60;1.00;;;;;;5047270;28;19909;-81
2024/03/26 02:29:56;;;;;;;;;;;6.60;1.00;;;;;;5053356;28;20271;-83
2024/03/26 02:32:22;;;;;;;;;;;6.60;1.00;;;;;;5049066;28;19928;-82
2024/03/26 02:34:47;;;;;;;;;;;6.60;1.00;;;;;;5053522;28;19967;-80
2024/03/26 02:37:13;;;;;;;;;;;6.60;1.00;;;;;;5054247;28;20282;-83
2024/03/26 02:39:38;;;;;;;;;;;6.60;1.00;;;;;;5068879;28;19916;-82
2024/03/26 02:42:04;;;;;;;;;;;6.60;1.00;;;;;;5053694;28;20282;-82
2024/03/26 02:44:29;;;;;;;;;;;6.60;1.00;;;;;;5038169;28;19916;-84
2024/03/26 02:46:54;;;;;;;;;;;6.60;1.00;;;;;;5052776;28;19917;-82
2024/03/26 02:49:20;;;;;;;;;;;6.60;1.00;;;;;;5053617;28;19948;-83
2024/03/26 02:51:45;;;;;;;;;;;6.60;1.00;;;;;;5055691;28;19916;-83
2024/03/26 02:54:11;;;;;;;;;;;6.60;1.00;;;;;;5072731;28;19951;-82
2024/03/26 02:56:36;;;;;;;;;;;6.60;1.00;;;;;;5072067;28;19913;-83
2024/03/26 02:59:02;;;;;;;;;;;6.60;1.00;;;;;;5055194;28;19995;-83
2024/03/26 03:01:27;;;;;;;;;;;6.60;1.00;;;;;;5056952;28;19912;-82
2024/03/26 03:03:53;;;;;;;;;;;6.50;1.00;;;;;;5069236;28;19999;-84
2024/03/26 03:06:18;;;;;;;;;;;6.50;1.00;;;;;;5056728;28;19999;-80
2024/03/26 03:08:44;;;;;;;;;;;6.50;1.00;;;;;;5054572;28;19913;-83
2024/03/26 03:11:09;;;;;;;;;;;6.50;1.00;;;;;;5056129;28;19956;-82
2024/03/26 03:13:35;;;;;;;;;;;6.50;1.00;;;;;;5069285;28;19913;-82
2024/03/26 03:16:00;;;;;;;;;;;6.50;1.00;;;;;;5046687;28;19959;-82
2024/03/26 03:18:26;;;;;;;;;;;6.50;1.00;;;;;;5047423;28;20263;-82
2024/03/26 03:20:52;;;;;;;;;;;6.50;1.00;;;;;;5050310;28;20359;-82
2024/03/26 03:23:17;;;;;;;;;;;6.50;1.00;;;;;;5071155;28;20341;-82
2024/03/26 03:25:43;;;;;;;;;;;6.50;1.00;;;;;;5051828;28;19919;-81
2024/03/26 03:28:08;;;;;;;;;;;6.50;1.00;;;;;;5049267;28;19916;-82
2024/03/26 03:30:34;;;;;;;;;;;6.50;1.00;;;;;;5055205;28;19913;-82
2024/03/26 03:33:00;;;;;;;;;;;6.50;1.00;;;;;;5065487;28;20382;-83
2024/03/26 03:35:25;;;;;;;;;;;6.50;1.00;;;;;;5056573;28;19912;-83
2024/03/26 03:37:51;;;;;;;;;;;6.50;1.00;;;;;;5070706;28;19962;-83
2024/03/26 03:40:17;;;;;;;;;;;6.50;1.00;;;;;;5051536;28;19912;-82
2024/03/26 03:42:43;;;;;;;;;;;6.50;1.00;;;;;;5049943;28;20371;-82
2024/03/26 03:45:08;;;;;;;;;;;6.50;1.00;;;;;;5060846;28;19917;-82
2024/03/26 03:47:33;;;;;;;;;;;6.60;1.00;;;;;;5055112;28;19913;-83
2024/03/26 03:49:59;;;;;;;;;;;6.60;1.00;;;;;;5057294;28;19913;-83
2024/03/26 03:52:25;;;;;;;;;;;6.60;1.00;;;;;;5053542;28;20031;-83
2024/03/26 03:54:52;;;;;;;;;;;6.60;1.00;;;;;;5056637;28;19913;-82
2024/03/26 03:57:18;;;;;;;;;;;6.60;1.00;;;;;;5055396;28;19951;-84
2024/03/26 03:59:43;;;;;;;;;;;6.60;1.00;;;;;;5051685;28;19912;-82
2024/03/26 04:02:09;;;;;;;;;;;6.50;1.00;;;;;;5062905;28;19913;-83
2024/03/26 04:04:34;;;;;;;;;;;6.50;1.00;;;;;;5056970;28;19916;-84
2024/03/26 04:07:00;;;;;;;;;;;6.50;1.00;;;;;;5072599;28;19916;-82
2024/03/26 04:09:25;;;;;;;;;;;6.50;1.00;;;;;;5057267;28;19954;-83
2024/03/26 04:11:51;;;;;;;;;;;6.50;1.00;;;;;;5056660;28;19964;-83
2024/03/26 04:14:16;;;;;;;;;;;6.50;1.00;;;;;;5056678;28;20287;-83
2024/03/26 04:16:46;;;;;;;;;;;6.50;1.00;;;;;;5051069;28;19913;-83
2024/03/26 04:19:14;;;;;;;;;;;6.50;1.00;;;;;;5055584;28;19913;-83
2024/03/26 04:21:40;;;;;;;;;;;6.50;1.00;;;;;;5053826;28;20371;-83
2024/03/26 04:24:06;;;;;;;;;;;6.50;1.00;;;;;;5057055;28;20007;-84
2024/03/26 04:26:32;;;;;;;;;;;6.50;1.00;;;;;;5068673;28;19948;-82
2024/03/26 04:28:57;;;;;;;;;;;6.40;1.00;;;;;;5049457;28;19971;-83
2024/03/26 04:31:23;;;;;;;;;;;6.40;1.00;;;;;;5057569;28;19916;-85
2024/03/26 04:33:48;;;;;;;;;;;6.40;1.00;;;;;;5054207;28;20003;-84
2024/03/26 04:36:14;;;;;;;;;;;6.40;1.00;;;;;;5054708;28;19909;-83
2024/03/26 04:38:39;;;;;;;;;;;6.30;1.00;;;;;;5049244;28;20454;-83
2024/03/26 04:41:05;;;;;;;;;;;6.30;1.00;;;;;;5047738;28;19996;-84
2024/03/26 04:43:30;;;;;;;;;;;6.30;1.00;;;;;;5054094;28;19909;-82
2024/03/26 04:45:55;;;;;;;;;;;6.30;1.00;;;;;;5070239;28;19909;-82
2024/03/26 04:48:21;;;;;;;;;;;6.30;1.00;;;;;;5054544;28;20067;-83
2024/03/26 04:50:46;;;;;;;;;;;6.30;1.00;;;;;;5058025;28;20313;-83
2024/03/26 04:53:12;;;;;;;;;;;6.20;1.00;;;;;;5074026;28;19913;-82
2024/03/26 04:55:37;;;;;;;;;;;6.20;1.00;;;;;;5061588;28;19912;-83
2024/03/26 04:58:03;;;;;;;;;;;6.20;1.00;;;;;;5043726;28;19931;-83
2024/03/26 05:00:29;;;;;;;;;;;6.20;1.00;;;;;;5058466;28;19908;-82
2024/03/26 05:02:56;;;;;;;;;;;6.20;1.00;;;;;;5052822;28;19924;-83
2024/03/26 05:05:21;;;;;;;;;;;6.20;1.00;;;;;;5046301;28;20008;-81
2024/03/26 05:07:47;;;;;;;;;;;6.20;1.00;;;;;;5054612;28;19944;-82
2024/03/26 05:10:12;;;;;;;;;;;6.20;1.00;;;;;;5067092;28;20327;-82
2024/03/26 05:12:37;;;;;;;;;;;6.20;1.00;;;;;;5053298;28;19913;-82
2024/03/26 05:15:03;;;;;;;;;;;6.10;1.00;;;;;;5054351;28;19995;-84
2024/03/26 05:17:28;;;;;;;;;;;6.10;1.00;;;;;;5053395;28;19913;-82
2024/03/26 05:19:54;;;;;;;;;;;6.10;1.00;;;;;;5050032;28;19913;-81
2024/03/26 05:22:19;;;;;;;;;;;6.10;1.00;;;;;;5051737;28;20613;-83
2024/03/26 05:24:45;;;;;;;;;;;6.10;1.00;;;;;;5052316;28;19923;-82
2024/03/26 05:27:10;;;;;;;;;;;6.10;1.00;;;;;;5052052;28;20348;-83
2024/03/26 05:29:36;;;;;;;;;;;6.10;1.00;;;;;;5052200;28;20743;-83
2024/03/26 05:32:02;;;;;;;;;;;6.10;1.00;;;;;;5051828;28;19917;-83
2024/03/26 05:34:27;;;;;;;;;;;6.20;1.00;;;;;;5051693;28;20477;-83
2024/03/26 05:36:53;;;;;;;;;;;6.20;1.00;;;;;;5043409;28;19913;-84
2024/03/26 05:39:19;;;;;;;;;;;6.20;1.00;;;;;;5049237;28;20318;-83
2024/03/26 05:41:45;;;;;;;;;;;6.20;1.00;;;;;;5050506;28;20521;-83
2024/03/26 05:44:11;;;;;;;;;;;6.30;1.00;;;;;;5047389;28;19915;-81
2024/03/26 05:46:36;;;;;;;;;;;6.30;1.00;;;;;;5053583;28;19916;-81
2024/03/26 05:49:01;;;;;;;;;;;6.40;1.00;;;;;;5048043;28;20290;-83
2024/03/26 05:51:27;;;;;;;;;;;6.40;1.00;;;;;;5052586;28;19930;-84
2024/03/26 05:53:53;;;;;;;;;;;6.50;1.00;;;;;;5050528;28;19913;-83
2024/03/26 05:56:19;;;;;;;;;;;6.50;1.00;;;;;;5049429;28;19913;-84
2024/03/26 05:58:44;;;;;;;;;;;6.60;1.00;;;;;;5062630;28;19916;-83
2024/03/26 06:01:10;;;;;;;;;;;6.60;1.00;;;;;;5057425;28;20301;-83
2024/03/26 06:03:36;;;;;;;;;;;6.60;1.00;;;;;;5042134;28;19909;-83
2024/03/26 06:06:01;;;;;;;;;;;6.60;1.00;;;;;;5034007;28;19916;-82
2024/03/26 06:08:27;;;;;;;;;;;6.60;1.00;;;;;;5047694;28;19920;-84
2024/03/26 06:10:52;;;;;;;;;;;6.70;1.00;;;;;;5051533;28;19913;-84
2024/03/26 06:13:18;;;;;;;;;;;6.70;1.00;;;;;;5052606;28;19920;-83
2024/03/26 06:15:43;;;;;;;;;;;6.80;1.00;;;;;;5053759;28;19916;-83
2024/03/26 06:18:09;;;;;;;;;;;6.80;1.00;;;;;;5066613;28;20294;-84
2024/03/26 06:20:34;;;;;;;;;;;6.80;1.00;;;;;;5051496;28;19917;-83
2024/03/26 06:23:00;;;;;;;;;;;6.90;1.00;;;;;;5053897;28;19932;-83
2024/03/26 06:25:25;;;;;;;;;;;6.90;1.00;;;;;;5048338;28;19943;-84
2024/03/26 06:27:52;;;;;;;;;;;6.90;1.00;;;;;;5055585;28;19913;-84
2024/03/26 06:30:18;;;;;;;;;;;7.00;1.00;;;;;;5057639;28;19912;-83
2024/03/26 06:32:44;;;;;;;;;;;7.00;1.00;;;;;;5056611;28;19963;-85
2024/03/26 06:35:09;;;;;;;;;;;7.10;1.00;;;;;;5058543;28;20306;-84
2024/03/26 06:37:35;;;;;;;;;;;7.10;1.00;;;;;;5058170;28;19920;-83
2024/03/26 06:40:00;;;;;;;;;;;7.20;1.00;;;;;;5057661;28;19909;-82
2024/03/26 06:42:26;;;;;;;;;;;7.20;1.00;;;;;;5057368;28;19908;-84
2024/03/26 06:44:52;;;;;;;;;;;7.30;1.00;;;;;;5054425;28;20384;-83
2024/03/26 06:47:17;;;;;;;;;;;7.30;1.00;;;;;;5054038;28;19913;-83
2024/03/26 06:49:43;;;;;;;;;;;7.40;1.00;;;;;;5053475;28;19912;-84
2024/03/26 06:52:08;;;;;;;;;;;7.40;1.00;;;;;;5056011;28;19917;-83
2024/03/26 06:54:34;;;;;;;;;;;7.40;1.00;;;;;;5065615;28;20375;-83
2024/03/26 06:56:59;;;;;;;;;;;7.50;1.00;;;;;;5054563;28;19913;-83
2024/03/26 06:59:25;;;;;;;;;;;7.50;1.00;;;;;;5053002;28;19948;-82
2024/03/26 07:01:50;;;;;;;;;;;7.60;1.00;;;;;;5069487;28;20360;-82
2024/03/26 07:04:16;;;;;;;;;;;7.70;1.00;;;;;;5053229;28;19909;-82
2024/03/26 07:06:42;;;;;;;;;;;7.80;1.00;;;;;;5055333;28;19935;-83
2024/03/26 07:09:08;;;;;;;;;;;7.90;1.00;;;;;;5055329;28;19917;-82
2024/03/26 07:11:33;;;;;;;;;;;7.90;1.00;;;;;;5055910;28;19969;-82
2024/03/26 07:13:58;;;;;;;;;;;8.00;1.00;;;;;;5055412;28;19913;-81
2024/03/26 07:16:24;;;;;;;;;;;8.10;1.00;;;;;;5069378;28;19984;-82
2024/03/26 07:18:50;;;;;;;;;;;8.20;1.00;;;;;;5049446;28;19913;-82
2024/03/26 07:21:17;;;;;;;;;;;8.30;99.90;;;;;;5057020;28;20080;-83
2024/03/26 07:23:43;;;;;;;;;;;8.30;99.90;;;;;;5053715;28;20326;-82
2024/03/26 07:26:09;;;;;;;;;;;8.40;99.90;;;;;;5055774;28;19916;-81
2024/03/26 07:28:34;;;;;;;;;;;8.50;99.90;;;;;;5055063;28;19913;-83
2024/03/26 07:31:00;;;;;;;;;;;8.60;99.90;;;;;;5051519;28;19921;-82
2024/03/26 07:33:26;;;;;;;;;;;8.70;99.90;;;;;;5056106;28;19952;-83
2024/03/26 07:35:51;;;;;;;;;;;8.90;99.90;;;;;;5053544;28;19987;-83
2024/03/26 07:38:17;;;;;;;;;;;9.00;99.90;;;;;;5056088;28;19917;-85
2024/03/26 07:40:43;;;;;;;;;;;9.10;99.90;;;;;;5042242;28;19913;-83
2024/03/26 07:43:09;;;;;;;;;;;9.30;99.90;;;;;;5051368;28;20303;-83
2024/03/26 07:45:34;;;;;;;;;;;9.60;99.90;;;;;;5047187;28;19920;-84
2024/03/26 07:48:00;;;;;;;;;;;10.10;99.90;;;;;;5047235;28;19913;-84
2024/03/26 07:50:25;;;;;;;;;;;10.40;99.90;;;;;;5052661;28;19923;-82
2024/03/26 07:52:51;;;;;;;;;;;11.20;99.90;;;;;;5048874;28;20004;-83
2024/03/26 07:55:16;;;;;;;;;;;11.60;99.90;;;;;;5057196;28;19917;-84
2024/03/26 07:57:42;;;;;;;;;;;11.90;99.90;;;;;;5048252;28;20011;-83
2024/03/26 08:00:10;;;;;;;;;;;12.00;99.90;;;;;;5038858;28;20803;-83
2024/03/26 08:02:36;;;;;;;;;;;12.00;99.90;;;;;;5051393;28;19954;-83
2024/03/26 08:05:02;;;;;;;;;;;11.90;99.90;;;;;;5054454;28;19917;-84
2024/03/26 08:07:28;;;;;;;;;;;11.90;99.90;;;;;;5061129;28;19913;-84
2024/03/26 08:09:53;;;;;;;;;;;11.80;99.90;;;;;;5053687;28;19963;-83
2024/03/26 08:12:19;;;;;;;;;;;11.70;99.90;;;;;;5046632;28;19909;-83
2024/03/26 08:14:45;;;;;;;;;;;11.50;99.90;;;;;;5047107;28;19912;-83
2024/03/26 08:17:10;;;;;;;;;;;11.40;99.90;;;;;;5051999;28;19916;-83
2024/03/26 08:19:36;;;;;;;;;;;11.30;99.90;;;;;;5047791;28;20374;-83
2024/03/26 08:22:01;;;;;;;;;;;11.20;99.90;;;;;;5053209;28;20000;-84
2024/03/26 08:24:27;;;;;;;;;;;11.00;99.90;;;;;;5054082;28;19916;-83
2024/03/26 08:26:52;;;;;;;;;;;10.90;99.90;;;;;;5053993;28;19908;-83
2024/03/26 08:29:18;;;;;;;;;;;10.80;99.90;;;;;;5050901;28;20349;-84
2024/03/26 08:31:44;;;;;;;;;;;10.80;99.90;;;;;;5056146;28;19924;-83
2024/03/26 08:34:09;;;;;;;;;;;10.90;99.90;;;;;;5049659;28;19909;-84
2024/03/26 08:36:35;;;;;;;;;;;10.80;99.90;;;;;;5072508;28;20282;-84
2024/03/26 08:39:00;;;;;;;;;;;10.90;99.90;;;;;;5072153;28;19948;-83
2024/03/26 08:41:25;;;;;;;;;;;10.90;99.90;;;;;;5063284;28;19913;-84
2024/03/26 08:43:51;;;;;;;;;;;11.00;99.90;;;;;;5052230;28;20414;-84
2024/03/26 08:46:17;;;;;;;;;;;11.00;99.90;;;;;;5059390;28;20010;-82
2024/03/26 08:48:45;;;;;;;;;;;11.00;99.90;;;;;;5039092;28;20206;-83
2024/03/26 08:51:10;;;;;;;;;;;11.00;99.90;;;;;;5056730;28;19960;-84
2024/03/26 08:53:36;;;;;;;;;;;11.00;99.90;;;;;;5052096;28;19931;-84
2024/03/26 08:56:02;;;;;;;;;;;11.10;99.90;;;;;;5047501;28;20012;-84
2024/03/26 08:58:27;;;;;;;;;;;11.10;99.90;;;;;;5052076;28;19952;-86
2024/03/26 09:00:53;;;;;;;;;;;11.00;99.90;;;;;;5051489;28;19932;-85
2024/03/26 09:03:18;;;;;;;;;;;11.00;99.90;;;;;;5056005;28;19974;-83
2024/03/26 09:05:44;;;;;;;;;;;11.10;99.90;;;;;;5057127;28;19920;-85
2024/03/26 09:08:09;;;;;;;;;;;11.10;99.90;;;;;;5048830;28;20448;-84
2024/03/26 09:10:34;;;;;;;;;;;11.10;99.90;;;;;;5061677;28;20015;-84
2024/03/26 09:13:00;;;;;;;;;;;11.10;99.90;;;;;;5069806;28;19913;-84
2024/03/26 09:15:25;;;;;;;;;;;11.00;99.90;;;;;;5050928;28;19920;-85
2024/03/26 09:17:52;;;;;;;;;;;11.00;99.90;;;;;;5048033;28;19940;-83
2024/03/26 09:20:17;;;;;;;;;;;10.90;99.90;;;;;;5041494;28;19913;-84
2024/03/26 09:22:43;;;;;;;;;;;10.90;99.90;;;;;;5046414;28;19955;-84
2024/03/26 09:25:08;;;;;;;;;;;10.80;99.90;;;;;;5047403;28;19917;-84
2024/03/26 09:27:34;;;;;;;;;;;10.80;99.90;;;;;;5049683;28;19915;-85
2024/03/26 09:30:00;;;;;;;;;;;10.70;99.90;;;;;;5046922;28;19916;-84
2024/03/26 09:32:25;;;;;;;;;;;10.70;99.90;;;;;;5052110;28;19999;-83
2024/03/26 09:34:50;;;;;;;;;;;10.70;99.90;;;;;;5052437;28;19924;-84
2024/03/26 09:37:16;;;;;;;;;;;10.70;99.90;;;;;;5055057;28;19913;-84
2024/03/26 09:39:41;;;;;;;;;;;10.70;99.90;;;;;;5048881;28;19917;-83
2024/03/26 09:42:08;;;;;;;;;;;10.70;99.90;;;;;;5051139;28;19912;-85
2024/03/26 09:44:35;;;;;;;;;;;10.70;99.90;;;;;;5053866;28;20556;-83
2024/03/26 09:47:01;;;;;;;;;;;10.70;99.90;;;;;;5052260;28;20370;-85
2024/03/26 09:49:27;;;;;;;;;;;10.70;99.90;;;;;;5069879;28;19923;-85
2024/03/26 09:51:53;;;;;;;;;;;10.70;99.90;;;;;;5042217;28;19913;-84
2024/03/26 09:54:19;;;;;;;;;;;10.80;99.90;;;;;;5046491;28;19920;-84
2024/03/26 09:56:45;;;;;;;;;;;10.90;99.90;;;;;;5054342;28;19912;-85
2024/03/26 09:59:11;;;;;;;;;;;11.00;99.90;;;;;;5049293;28;20325;-85
2024/03/26 10:01:38;;;;;;;;;;;11.10;99.90;;;;;;5050034;28;19939;-85
2024/03/26 10:04:03;;;;;;;;;;;11.40;99.90;;;;;;5049440;28;19920;-84
2024/03/26 10:06:29;;;;;;;;;;;11.60;99.90;;;;;;5051044;28;20436;-83
2024/03/26 10:08:58;;;;;;;;;;;11.80;99.90;;;;;;5044733;28;20306;-82
2024/03/26 10:11:24;;;;;;;;;;;11.90;99.90;;;;;;5054288;28;19919;-84
2024/03/26 10:13:50;;;;;;;;;;;12.00;99.90;;;;;;5055300;28;19913;-84
2024/03/26 10:16:16;;;;;;;;;;;12.30;99.90;;;;;;5048470;28;19927;-85
2024/03/26 10:18:42;;;;;;;;;;;12.50;99.90;;;;;;5037245;28;19916;-84
2024/03/26 10:21:07;;;;;;;;;;;12.70;99.90;;;;;;5042523;28;19912;-84
2024/03/26 10:23:33;;;;;;;;;;;12.90;99.90;;;;;;5039291;28;19971;-84
2024/03/26 10:25:59;;;;;;;;;;;13.20;99.90;;;;;;5041131;28;19917;-84
2024/03/26 10:28:24;;;;;;;;;;;13.40;99.90;;;;;;5044040;28;19975;-84
2024/03/26 10:30:50;;;;;;;;;;;13.60;99.90;;;;;;5035326;28;19970;-85
2024/03/26 10:33:17;;;;;;;;;;;13.60;99.90;;;;;;5040158;28;20197;-83
2024/03/26 10:35:43;;;;;;;;;;;13.70;99.90;;;;;;5035250;28;20378;-84
2024/03/26 10:38:10;;;;;;;;;;;13.90;99.90;;;;;;5031757;28;19918;-84
2024/03/26 10:40:38;;;;;;;;;;;14.10;99.90;;;;;;5037849;28;19917;-83
2024/03/26 10:43:04;;;;;;;;;;;14.50;99.90;;;;;;5036767;28;19985;-84
2024/03/26 10:45:30;;;;;;;;;;;14.70;99.90;;;;;;5048809;28;19977;-85
2024/03/26 10:47:55;;;;;;;;;;;15.10;99.90;;;;;;5054806;28;20290;-84
2024/03/26 10:50:22;;;;;;;;;;;15.30;99.90;;;;;;5044155;28;19917;-84
2024/03/26 10:52:48;;;;;;;;;;;15.50;99.90;;;;;;5045990;28;19920;-85
2024/03/26 10:55:14;;;;;;;;;;;15.70;99.90;;;;;;5042473;28;20371;-85
2024/03/26 10:57:41;;;;;;;;;;;15.90;99.90;;;;;;5038517;28;19944;-82
2024/03/26 11:00:10;;;;;;;;;;;16.00;99.90;;;;;;5040148;28;19920;-83
2024/03/26 11:02:37;;;;;;;;;;;16.20;99.90;;;;;;5045802;28;19959;-82
2024/03/26 11:05:04;;;;;;;;;;;16.10;99.90;;;;;;5044238;28;20914;-85
2024/03/26 11:07:32;;;;;;;;;;;16.00;99.90;;;;;;5045827;28;19921;-84
2024/03/26 11:10:10;;;;;;;;;;;16.00;99.90;;;;;;5049747;28;20283;-85
2024/03/26 11:12:39;;;;;;;;;;;16.20;99.90;;;;;;5051533;28;19923;-86
2024/03/26 11:15:11;;;;;;;;;;;16.90;99.90;;;;;;5046939;28;19913;-86
2024/03/26 11:17:47;;;;;;;;;;;17.50;99.90;;;;;;5043037;28;20003;-85
2024/03/26 11:20:15;;;;;;;;;;;18.00;99.90;;;;;;5047117;28;20003;-84
2024/03/26 11:22:41;;;;;;;;;;;18.10;99.90;;;;;;5041973;28;19913;-86
2024/03/26 11:25:07;;;;;;;;;;;18.30;99.90;;;;;;5050159;28;20004;-81
2024/03/26 11:27:32;;;;;;;;;;;18.30;99.90;;;;;;5060815;28;19932;-80
2024/03/26 11:29:58;;;;;;;;;;;18.80;99.90;;;;;;5063092;28;19941;-83
2024/03/26 11:32:27;;;;;;;;;;;19.00;99.90;;;;;;5041979;28;19916;-83
2024/03/26 11:35:12;;;;;;;;;;;18.90;99.90;;;;;;5063807;28;20039;-83
2024/03/26 11:37:39;;;;;;;;;;;18.80;99.90;;;;;;5050285;28;19909;-84
2024/03/26 11:40:07;;;;;;;;;;;19.00;99.90;;;;;;5057856;28;19936;-83
2024/03/26 11:42:33;;;;;;;;;;;19.30;99.90;;;;;;5056187;28;19916;-81
2024/03/26 11:45:04;;;;;;;;;;;19.60;99.90;;;;;;5065720;28;20011;-83
2024/03/26 11:47:30;;;;;;;;;;;19.50;99.90;;;;;;5052622;28;19988;-83
2024/03/26 11:49:56;;;;;;;;;;;19.20;99.90;;;;;;5052971;28;19970;-84
2024/03/26 11:52:21;;;;;;;;;;;19.10;99.90;;;;;;5055334;28;19984;-84
2024/03/26 11:54:47;;;;;;;;;;;19.20;99.90;;;;;;5054459;28;20385;-83
2024/03/26 11:57:12;;;;;;;;;;;19.80;99.90;;;;;;5055134;28;19978;-84
2024/03/26 11:59:41;;;;;;;;;;;20.30;99.90;;;;;;5058372;28;19977;-82
2024/03/26 12:02:06;;;;;;;;;;;20.70;99.90;;;;;;5051727;28;19917;-86
2024/03/26 12:04:32;;;;;;;;;;;21.40;99.90;;;;;;5053409;28;19966;-87
2024/03/26 12:06:57;;;;;;;;;;;21.90;99.90;;;;;;5053884;28;19909;-86
2024/03/26 12:09:23;;;;;;;;;;;22.00;99.90;;;;;;5048417;28;19917;-86
2024/03/26 12:11:48;;;;;;;;;;;22.10;99.90;;;;;;5049506;28;19916;-85
2024/03/26 12:14:14;;;;;;;;;;;21.80;99.90;;;;;;5053001;28;19936;-85
2024/03/26 12:16:40;;;;;;;;;;;21.40;99.90;;;;;;5052946;28;19916;-85
2024/03/26 12:19:06;;;;;;;;;;;21.00;99.90;;;;;;5039788;28;19913;-85
2024/03/26 12:21:32;;;;;;;;;;;20.60;99.90;;;;;;5053758;28;20008;-84
2024/03/26 12:23:57;;;;;;;;;;;20.00;99.90;;;;;;5054617;28;19923;-86
2024/03/26 12:26:23;;;;;;;;;;;19.70;99.90;;;;;;5053770;28;19913;-85
2024/03/26 12:28:49;;;;;;;;;;;19.30;99.90;;;;;;5068214;28;20003;-85
2024/03/26 12:31:17;;;;;;;;;;;19.00;99.90;;;;;;5085629;22;20319;-84
2024/03/26 12:33:43;;;;;;;;;;;18.90;99.90;;;;;;5035962;28;19909;-84
2024/03/26 12:36:09;;;;;;;;;;;18.70;99.90;;;;;;5037147;28;19951;-82
2024/03/26 12:38:37;;;;;;;;;;;18.60;99.90;;;;;;5038274;28;19909;-82
2024/03/26 12:41:02;;;;;;;;;;;18.40;99.90;;;;;;5038081;28;19963;-84
2024/03/26 12:43:29;;;;;;;;;;;18.30;99.90;;;;;;5031529;28;20183;-82
2024/03/26 12:45:54;;;;;;;;;;;18.30;99.90;;;;;;5034024;28;20004;-81
2024/03/26 12:48:20;;;;;;;;;;;18.00;99.90;;;;;;5039249;28;19947;-83
2024/03/26 12:50:45;;;;;;;;;;;17.90;99.90;;;;;;5040258;28;19924;-82
2024/03/26 12:53:11;;;;;;;;;;;17.80;99.90;;;;;;5040368;28;20437;-82
2024/03/26 12:55:36;;;;;;;;;;;17.70;99.90;;;;;;5040474;28;19909;-82
2024/03/26 12:58:02;;;;;;;;;;;17.60;99.90;;;;;;5038923;28;19913;-82
2024/03/26 13:00:27;;;;;;;;;;;17.50;99.90;;;;;;5042188;28;19909;-83
2024/03/26 13:02:53;;;;;;;;;;;17.40;99.90;;;;;;5045915;28;19976;-82
2024/03/26 13:05:19;;;;;;;;;;;17.40;99.90;;;;;;5035015;28;19956;-83
2024/03/26 13:07:44;;;;;;;;;;;17.40;99.90;;;;;;5038249;28;19916;-85
2024/03/26 13:10:10;;;;;;;;;;;17.30;99.90;;;;;;5032604;28;19917;-85
2024/03/26 13:12:36;;;;;;;;;;;17.20;99.90;;;;;;5035385;28;20370;-82
2024/03/26 13:15:01;;;;;;;;;;;17.10;99.90;;;;;;5038695;28;19909;-83
2024/03/26 13:17:27;;;;;;;;;;;17.10;99.90;;;;;;5039711;28;19913;-84
2024/03/26 13:19:52;;;;;;;;;;;17.20;99.90;;;;;;5041654;28;19909;-84
2024/03/26 13:22:18;;;;;;;;;;;17.20;99.90;;;;;;5046955;28;19963;-82
2024/03/26 13:24:43;;;;;;;;;;;17.30;99.90;;;;;;5039463;28;20390;-84
2024/03/26 13:27:09;;;;;;;;;;;17.50;99.90;;;;;;5036972;28;19996;-82
2024/03/26 13:29:34;;;;;;;;;;;17.70;99.90;;;;;;5037615;28;19917;-82
2024/03/26 13:32:00;;;;;;;;;;;17.80;99.90;;;;;;5048059;28;19968;-80
2024/03/26 13:34:25;;;;;;;;;;;17.90;99.90;;;;;;5036654;28;19913;-84
2024/03/26 13:36:51;;;;;;;;;;;18.00;99.90;;;;;;5041413;28;19916;-83
2024/03/26 13:39:16;;;;;;;;;;;18.20;99.90;;;;;;5040979;28;19909;-81
2024/03/26 13:41:42;;;;;;;;;;;18.40;99.90;;;;;;5040800;28;19920;-81
2024/03/26 13:44:07;;;;;;;;;;;18.40;99.90;;;;;;5037714;28;19928;-82
2024/03/26 13:46:33;;;;;;;;;;;18.20;99.90;;;;;;5048094;28;19925;-81
2024/03/26 13:48:58;;;;;;;;;;;18.00;99.90;;;;;;5038610;28;19936;-81
2024/03/26 13:51:26;;;;;;;;;;;17.90;99.90;;;;;;5039982;28;19917;-82
2024/03/26 13:53:52;;;;;;;;;;;17.90;99.90;;;;;;5038997;28;19920;-81
2024/03/26 13:56:17;;;;;;;;;;;17.90;99.90;;;;;;5040128;28;19913;-81
2024/03/26 13:58:43;;;;;;;;;;;17.80;99.90;;;;;;5032154;28;19909;-81
2024/03/26 14:01:08;;;;;;;;;;;17.60;99.90;;;;;;5030252;28;19913;-82
2024/03/26 14:03:34;;;;;;;;;;;17.40;99.90;;;;;;5040722;28;19909;-82
2024/03/26 14:05:59;;;;;;;;;;;17.20;99.90;;;;;;5036338;28;19917;-82
2024/03/26 14:08:24;;;;;;;;;;;17.20;99.90;;;;;;5030543;28;20363;-82
2024/03/26 14:10:50;;;;;;;;;;;17.20;99.90;;;;;;5040566;28;19913;-80
2024/03/26 14:13:16;;;;;;;;;;;17.20;99.90;;;;;;5042977;28;19975;-81
2024/03/26 14:15:41;;;;;;;;;;;17.20;99.90;;;;;;5039512;28;20360;-82
2024/03/26 14:18:07;;;;;;;;;;;17.20;99.90;;;;;;5039247;28;19999;-82
2024/03/26 14:20:32;;;;;;;;;;;17.30;99.90;;;;;;5035523;28;19940;-80
2024/03/26 14:22:59;;;;;;;;;;;17.30;99.90;;;;;;5040460;28;20272;-81